Terminal Aerodrome Forecast
Issued by NWS Jackson, KY

Home | Current Version | Previous Version | Text Only | Print | Product List | Glossary On
Versions: 1 2 3 4 5 6 7 8 9 10 11 12 13 14 15 16
000
FTUS43 KJKL 241120
TAFLOZ
TAF
KLOZ 241120Z 2412/2512 22009KT P6SM BKN035
     FM241300 23009KT P6SM BKN040
     FM241500 25010G20KT P6SM SCT080
     FM242300 25009KT P6SM SCT150
     FM251100 VRB04KT P6SM BKN040=

USA.gov is the U.S. government's official web portal to all federal, state and local government web resources and services.